createdAt,value
2018-01-07T00:00:55.129Z,94927
2018-01-07T00:03:24.196Z,94924
2018-01-07T00:05:52.298Z,94934
2018-01-07T00:08:20.471Z,94928
2018-01-07T00:10:48.706Z,94939
2018-01-07T00:13:16.876Z,94942
2018-01-07T00:15:44.957Z,94933
2018-01-07T00:18:13.062Z,94934
2018-01-07T00:20:41.155Z,94937
2018-01-07T00:23:09.247Z,94937
2018-01-07T00:25:37.460Z,94940
2018-01-07T00:28:05.574Z,94936
2018-01-07T00:30:33.727Z,94929
2018-01-07T00:33:01.853Z,94937
2018-01-07T00:35:29.947Z,94946
2018-01-07T00:37:58.069Z,94941
2018-01-07T00:40:26.155Z,94941
2018-01-07T00:42:54.263Z,94933
2018-01-07T00:45:22.355Z,94951
2018-01-07T00:47:50.455Z,94954
2018-01-07T00:50:18.651Z,94958
2018-01-07T00:52:46.739Z,94960
2018-01-07T00:55:16.547Z,94963
2018-01-07T00:57:44.983Z,94966
2018-01-07T01:00:13.089Z,94967
2018-01-07T01:02:41.170Z,94967
2018-01-07T01:05:09.271Z,94980
2018-01-07T01:07:37.382Z,94990
2018-01-07T01:10:06.016Z,94980
2018-01-07T01:12:34.100Z,94985
2018-01-07T01:15:02.202Z,94987
2018-01-07T01:17:31.053Z,95000
2018-01-07T01:19:59.233Z,94998
2018-01-07T01:22:27.345Z,94988
2018-01-07T01:24:55.445Z,94998
2018-01-07T01:27:23.532Z,95005
2018-01-07T01:29:51.657Z,95012
2018-01-07T01:32:20.504Z,95007
2018-01-07T01:34:49.234Z,95017
2018-01-07T01:37:17.453Z,95010
2018-01-07T01:39:45.619Z,95011
2018-01-07T01:42:13.770Z,95012
2018-01-07T01:44:41.863Z,95011
2018-01-07T01:47:09.971Z,95016
2018-01-07T01:49:38.061Z,95015
2018-01-07T01:52:06.984Z,95006
2018-01-07T01:54:35.541Z,95011
2018-01-07T01:57:03.647Z,95014
2018-01-07T01:59:31.733Z,95025
2018-01-07T02:01:59.831Z,95029
2018-01-07T02:04:28.025Z,95043
2018-01-07T02:06:56.105Z,95044
2018-01-07T02:09:24.207Z,95051
2018-01-07T02:11:52.279Z,95047
2018-01-07T02:14:20.379Z,95044
2018-01-07T02:16:48.464Z,95039
2018-01-07T02:19:16.567Z,95032
2018-01-07T02:21:44.696Z,95048
2018-01-07T02:24:12.798Z,95062
2018-01-07T02:26:40.881Z,95063
2018-01-07T02:29:09.626Z,95064
2018-01-07T02:31:37.845Z,95066
2018-01-07T02:34:05.976Z,95067
2018-01-07T02:36:34.100Z,95054
2018-01-07T02:39:02.194Z,95064
2018-01-07T02:41:31.018Z,95070
2018-01-07T02:43:59.165Z,95076
2018-01-07T02:46:27.451Z,95072
2018-01-07T02:48:55.598Z,95070
2018-01-07T02:51:23.776Z,95080
2018-01-07T02:53:52.029Z,95064
2018-01-07T02:56:20.167Z,95068
2018-01-07T02:58:48.316Z,95070
2018-01-07T03:01:16.394Z,95069
2018-01-07T03:03:44.497Z,95071
2018-01-07T03:06:12.577Z,95071
2018-01-07T03:08:41.431Z,95069
2018-01-07T03:11:09.569Z,95075
2018-01-07T03:13:37.703Z,95073
2018-01-07T03:16:05.833Z,95072
2018-01-07T03:18:33.935Z,95068
2018-01-07T03:21:02.031Z,95066
2018-01-07T03:23:30.115Z,95065
2018-01-07T03:25:58.255Z,95071
2018-01-07T03:28:26.388Z,95068
2018-01-07T03:30:54.492Z,95065
2018-01-07T03:33:22.673Z,95076
2018-01-07T03:35:50.838Z,95079
2018-01-07T03:38:18.926Z,95073
2018-01-07T03:40:47.991Z,95069
2018-01-07T03:43:16.075Z,95062
2018-01-07T03:45:44.186Z,95057
2018-01-07T03:48:12.283Z,95062
2018-01-07T03:50:40.364Z,95065
2018-01-07T03:53:08.460Z,95067
2018-01-07T03:55:36.544Z,95063
2018-01-07T03:58:04.670Z,95068
2018-01-07T04:00:32.752Z,95071
2018-01-07T04:03:00.933Z,95075
2018-01-07T04:05:29.042Z,95076
2018-01-07T04:07:57.162Z,95069
2018-01-07T04:10:25.306Z,95065
2018-01-07T04:12:53.446Z,95072
2018-01-07T04:15:21.551Z,95070
2018-01-07T04:17:49.680Z,95069
2018-01-07T04:20:17.968Z,95084
2018-01-07T04:22:46.169Z,95083
2018-01-07T04:25:14.321Z,95083
2018-01-07T04:27:42.398Z,95081
2018-01-07T04:30:11.262Z,95079
2018-01-07T04:32:39.356Z,95084
2018-01-07T04:35:07.482Z,95073
2018-01-07T04:37:35.633Z,95085
2018-01-07T04:40:03.743Z,95087
2018-01-07T04:42:31.867Z,95092
2018-01-07T04:45:00.719Z,95103
2018-01-07T04:47:28.837Z,95125
2018-01-07T04:49:56.969Z,95135
2018-01-07T04:52:25.115Z,95124
2018-01-07T04:54:53.228Z,95133
2018-01-07T04:57:21.459Z,95126
2018-01-07T04:59:49.697Z,95133
2018-01-07T05:02:17.963Z,95133
2018-01-07T05:04:46.189Z,95137
2018-01-07T05:07:14.801Z,95142
2018-01-07T05:09:42.906Z,95129
2018-01-07T05:12:10.994Z,95136
2018-01-07T05:14:39.213Z,95140
2018-01-07T05:17:07.410Z,95143
2018-01-07T05:19:35.644Z,95141
2018-01-07T05:22:03.838Z,95131
2018-01-07T05:24:31.942Z,95135
2018-01-07T05:27:00.839Z,95139
2018-01-07T05:29:28.950Z,95141
2018-01-07T05:31:57.060Z,95151
2018-01-07T05:34:25.152Z,95144
2018-01-07T05:36:53.256Z,95145
2018-01-07T05:39:21.357Z,95151
2018-01-07T05:41:49.478Z,95159
2018-01-07T05:44:17.629Z,95173
2018-01-07T05:46:46.334Z,95166
2018-01-07T05:49:14.403Z,95166
2018-01-07T05:51:42.532Z,95170
2018-01-07T05:54:10.624Z,95176
2018-01-07T05:56:38.717Z,95187
2018-01-07T05:59:08.291Z,95183
2018-01-07T06:01:36.396Z,95185
2018-01-07T06:04:05.253Z,95201
2018-01-07T06:06:33.355Z,95197
2018-01-07T06:09:01.481Z,95198
2018-01-07T06:11:30.563Z,95206
2018-01-07T06:13:58.821Z,95213
2018-01-07T06:16:26.937Z,95235
2018-01-07T06:18:55.044Z,95242
2018-01-07T06:21:23.135Z,95237
2018-01-07T06:23:51.272Z,95243
2018-01-07T06:26:19.905Z,95242
2018-01-07T06:28:48.920Z,95248
2018-01-07T06:31:17.076Z,95240
2018-01-07T06:33:45.228Z,95253
2018-01-07T06:36:13.343Z,95255
2018-01-07T06:38:41.539Z,95261
2018-01-07T06:41:09.793Z,95258
2018-01-07T06:43:37.912Z,95251
2018-01-07T06:46:06.021Z,95253
2018-01-07T06:48:34.132Z,95255
2018-01-07T06:51:02.308Z,95261
2018-01-07T06:53:30.418Z,95254
2018-01-07T06:55:58.507Z,95258
2018-01-07T06:58:26.625Z,95251
2018-01-07T07:00:54.717Z,95263
2018-01-07T07:03:22.822Z,95268
2018-01-07T07:05:50.929Z,95271
2018-01-07T07:08:19.108Z,95261
2018-01-07T07:10:47.206Z,95272
2018-01-07T07:13:15.340Z,95281
2018-01-07T07:15:43.429Z,95276
2018-01-07T07:18:11.544Z,95279
2018-01-07T07:20:39.647Z,95290
2018-01-07T07:23:07.811Z,95288
2018-01-07T07:25:35.934Z,95293
2018-01-07T07:28:04.035Z,95302
2018-01-07T07:30:32.151Z,95308
2018-01-07T07:33:00.247Z,95328
2018-01-07T07:35:29.179Z,95339
2018-01-07T07:37:57.294Z,95334
2018-01-07T07:40:25.416Z,95339
2018-01-07T07:42:53.509Z,95335
2018-01-07T07:45:22.045Z,95341
2018-01-07T07:47:50.896Z,95342
2018-01-07T07:50:19.029Z,95349
2018-01-07T07:52:47.129Z,95355
2018-01-07T07:55:15.218Z,95358
2018-01-07T07:57:43.323Z,95355
2018-01-07T08:00:11.476Z,95351
2018-01-07T08:02:39.572Z,95361
2018-01-07T08:05:07.688Z,95362
2018-01-07T08:07:35.793Z,95362
2018-01-07T08:10:03.884Z,95371
2018-01-07T08:12:31.988Z,95378
2018-01-07T08:15:00.075Z,95381
2018-01-07T08:17:28.248Z,95380
2018-01-07T08:19:56.330Z,95385
2018-01-07T08:22:24.456Z,95396
2018-01-07T08:24:52.538Z,95389
2018-01-07T08:27:20.673Z,95405
2018-01-07T08:29:48.749Z,95401
2018-01-07T08:32:16.915Z,95407
2018-01-07T08:34:45.079Z,95397
2018-01-07T08:37:13.128Z,95388
2018-01-07T08:39:41.385Z,95390
2018-01-07T08:42:09.545Z,95385
2018-01-07T08:44:37.708Z,95388
2018-01-07T08:47:05.795Z,95399
2018-01-07T08:49:33.899Z,95406
2018-01-07T08:52:02.017Z,95421
2018-01-07T08:54:30.904Z,95423
2018-01-07T08:56:59.773Z,95426
2018-01-07T08:59:27.858Z,95428
2018-01-07T09:01:56.743Z,95442
2018-01-07T09:04:24.850Z,95448
2018-01-07T09:06:52.950Z,95444
2018-01-07T09:09:21.051Z,95441
2018-01-07T09:12:11.789Z,95446
2018-01-07T09:14:40.666Z,95439
2018-01-07T09:17:08.834Z,95432
2018-01-07T09:19:36.954Z,95440
2018-01-07T09:22:05.058Z,95438
2018-01-07T09:24:33.206Z,95447
2018-01-07T09:27:01.310Z,95462
2018-01-07T09:29:29.427Z,95460
2018-01-07T09:31:57.582Z,95463
2018-01-07T09:34:26.472Z,95469
2018-01-07T09:36:54.552Z,95470
2018-01-07T09:39:22.667Z,95481
2018-01-07T09:41:50.752Z,95480
2018-01-07T09:44:18.848Z,95482
2018-01-07T09:46:46.927Z,95478
2018-01-07T09:49:15.049Z,95492
2018-01-07T09:51:43.136Z,95482
2018-01-07T09:54:11.288Z,95480
2018-01-07T09:56:39.371Z,95489
2018-01-07T09:59:07.502Z,95490
2018-01-07T10:01:35.609Z,95492
2018-01-07T10:04:03.695Z,95496
2018-01-07T10:06:31.810Z,95485
2018-01-07T10:09:00.708Z,95487
2018-01-07T10:11:28.893Z,95497
2018-01-07T10:13:57.025Z,95488
2018-01-07T10:16:25.149Z,95487
2018-01-07T10:18:53.242Z,95497
2018-01-07T10:21:21.336Z,95498
2018-01-07T10:23:49.463Z,95486
2018-01-07T10:26:17.682Z,95480
2018-01-07T10:28:45.806Z,95490
2018-01-07T10:31:13.936Z,95480
2018-01-07T10:33:42.030Z,95473
2018-01-07T10:36:10.911Z,95461
2018-01-07T10:38:39.013Z,95464
2018-01-07T10:41:07.112Z,95472
2018-01-07T10:43:35.217Z,95479
2018-01-07T10:46:03.314Z,95480
2018-01-07T10:48:31.404Z,95477
2018-01-07T10:50:59.548Z,95476
2018-01-07T10:53:28.556Z,95477
2018-01-07T10:55:56.696Z,95478
2018-01-07T10:58:24.857Z,95481
2018-01-07T11:00:58.633Z,95482
2018-01-07T11:03:26.737Z,95493
2018-01-07T11:05:54.836Z,95493
2018-01-07T11:08:23.800Z,95490
2018-01-07T11:10:51.918Z,95477
2018-01-07T11:13:20.292Z,95464
2018-01-07T11:15:48.481Z,95468
2018-01-07T11:18:16.583Z,95479
2018-01-07T11:20:45.294Z,95481
2018-01-07T11:23:13.397Z,95486
2018-01-07T11:25:41.517Z,95487
2018-01-07T11:28:09.804Z,95497
2018-01-07T11:30:37.976Z,95505
2018-01-07T11:33:06.074Z,95507
2018-01-07T11:35:34.240Z,95497
2018-01-07T11:38:03.135Z,95496
2018-01-07T11:40:31.228Z,95488
2018-01-07T11:42:59.416Z,95480
2018-01-07T11:45:27.499Z,95488
2018-01-07T11:47:55.624Z,95483
2018-01-07T11:50:24.492Z,95498
2018-01-07T11:52:52.585Z,95495
2018-01-07T11:55:21.464Z,95504
2018-01-07T11:57:49.588Z,95496
2018-01-07T12:00:17.698Z,95506
2018-01-07T12:02:45.845Z,95515
2018-01-07T12:05:13.941Z,95516
2018-01-07T12:07:42.039Z,95490
2018-01-07T12:10:10.142Z,95490
2018-01-07T12:12:38.299Z,95487
2018-01-07T12:15:06.399Z,95482
2018-01-07T12:17:35.476Z,95476
2018-01-07T12:20:04.178Z,95466
2018-01-07T12:22:32.307Z,95470
2018-01-07T12:25:00.485Z,95454
2018-01-07T12:27:28.742Z,95465
2018-01-07T12:29:56.861Z,95480
2018-01-07T12:32:24.961Z,95477
2018-01-07T12:34:53.066Z,95480
2018-01-07T12:37:21.179Z,95487
2018-01-07T12:39:49.286Z,95480
2018-01-07T12:42:17.384Z,95477
2018-01-07T12:44:45.993Z,95477
2018-01-07T12:47:14.853Z,95463
2018-01-07T12:49:42.944Z,95476
2018-01-07T12:52:11.802Z,95467
2018-01-07T12:54:39.949Z,95468
2018-01-07T12:57:08.080Z,95478
2018-01-07T12:59:36.169Z,95475
2018-01-07T13:02:04.272Z,95469
2018-01-07T13:04:32.372Z,95471
2018-01-07T13:07:00.480Z,95473
2018-01-07T13:09:28.584Z,95475
2018-01-07T13:11:56.695Z,95484
2018-01-07T13:14:24.792Z,95481
2018-01-07T13:16:52.903Z,95485
2018-01-07T13:19:21.033Z,95480
2018-01-07T13:21:49.923Z,95505
2018-01-07T13:24:18.110Z,95498
2018-01-07T13:26:46.225Z,95494
2018-01-07T13:29:14.321Z,95502
2018-01-07T13:31:42.849Z,95500
2018-01-07T13:34:10.980Z,95498
2018-01-07T13:36:39.066Z,95500
2018-01-07T13:39:07.207Z,95493
2018-01-07T13:41:35.296Z,95487
2018-01-07T13:44:03.412Z,95497
2018-01-07T13:46:31.521Z,95498
2018-01-07T13:48:59.665Z,95500
2018-01-07T13:51:27.843Z,95498
2018-01-07T13:53:56.035Z,95491
2018-01-07T13:56:24.147Z,95505
2018-01-07T13:58:52.293Z,95508
2018-01-07T14:01:20.412Z,95514
2018-01-07T14:03:48.628Z,95514
2018-01-07T14:06:16.734Z,95524
2018-01-07T14:08:44.826Z,95523
2018-01-07T14:11:13.038Z,95514
2018-01-07T14:13:41.134Z,95516
2018-01-07T14:16:09.301Z,95508
2018-01-07T14:18:37.427Z,95507
2018-01-07T14:21:05.559Z,95513
2018-01-07T14:23:33.636Z,95510
2018-01-07T14:26:01.740Z,95512
2018-01-07T14:28:29.950Z,95517
2018-01-07T14:30:58.129Z,95529
2018-01-07T14:33:26.238Z,95532
2018-01-07T14:35:54.373Z,95527
2018-01-07T14:38:23.089Z,95520
2018-01-07T14:40:51.999Z,95524
2018-01-07T14:43:20.147Z,95531
2018-01-07T14:45:48.255Z,95535
2018-01-07T14:48:16.379Z,95543
2018-01-07T14:50:44.479Z,95540
2018-01-07T14:53:12.608Z,95538
2018-01-07T14:55:40.703Z,95539
2018-01-07T14:58:09.039Z,95539
2018-01-07T15:00:37.366Z,95550
2018-01-07T15:03:06.173Z,95529
2018-01-07T15:05:35.047Z,95531
2018-01-07T15:08:03.163Z,95548
2018-01-07T15:10:31.307Z,95537
2018-01-07T15:12:59.433Z,95543
2018-01-07T15:15:27.592Z,95543
2018-01-07T15:17:55.749Z,95538
2018-01-07T15:20:24.021Z,95539
2018-01-07T15:22:52.209Z,95538
2018-01-07T15:25:20.421Z,95544
2018-01-07T15:27:48.745Z,95557
2018-01-07T15:30:16.903Z,95540
2018-01-07T15:32:45.037Z,95545
2018-01-07T15:35:13.189Z,95542
2018-01-07T15:37:41.357Z,95548
2018-01-07T15:40:09.853Z,95548
2018-01-07T15:42:38.032Z,95554
2018-01-07T15:45:06.195Z,95548
2018-01-07T15:47:34.321Z,95555
2018-01-07T15:50:03.253Z,95562
2018-01-07T15:52:31.419Z,95560
2018-01-07T15:54:59.551Z,95566
2018-01-07T15:57:28.521Z,95560
2018-01-07T15:59:56.719Z,95561
2018-01-07T16:02:24.869Z,95558
2018-01-07T16:04:53.021Z,95566
2018-01-07T16:07:21.150Z,95564
2018-01-07T16:09:49.733Z,95573
2018-01-07T16:12:19.067Z,95570
2018-01-07T16:14:47.239Z,95569
2018-01-07T16:17:15.427Z,95572
2018-01-07T16:19:43.606Z,95583
2018-01-07T16:22:11.744Z,95587
2018-01-07T16:24:39.977Z,95578
2018-01-07T16:27:08.199Z,95586
2018-01-07T16:29:36.384Z,95585
2018-01-07T16:32:04.519Z,95584
2018-01-07T16:34:33.469Z,95574
2018-01-07T16:37:01.625Z,95563
2018-01-07T16:39:29.972Z,95553
2018-01-07T16:41:58.277Z,95579
2018-01-07T16:44:27.373Z,95590
2018-01-07T16:46:55.617Z,95595
2018-01-07T16:49:23.750Z,95586
2018-01-07T16:51:51.992Z,95588
2018-01-07T16:54:20.210Z,95589
2018-01-07T16:56:48.471Z,95584
2018-01-07T16:59:16.605Z,95578
2018-01-07T17:01:44.753Z,95578
2018-01-07T17:04:12.931Z,95570
2018-01-07T17:06:42.284Z,95582
2018-01-07T17:09:10.441Z,95579
2018-01-07T17:11:39.378Z,95566
2018-01-07T17:14:07.548Z,95569
2018-01-07T17:16:35.670Z,95571
2018-01-07T17:19:03.858Z,95575
2018-01-07T17:21:32.094Z,95573
2018-01-07T17:24:00.978Z,95568
2018-01-07T17:26:30.111Z,95578
2018-01-07T17:28:58.244Z,95582
2018-01-07T17:31:26.373Z,95584
2018-01-07T17:33:54.542Z,95590
2018-01-07T17:36:22.672Z,95595
2018-01-07T17:38:50.863Z,95595
2018-01-07T17:41:19.054Z,95582
2018-01-07T17:43:47.257Z,95574
2018-01-07T17:46:15.475Z,95587
2018-01-07T17:48:43.626Z,95586
2018-01-07T17:51:11.732Z,95586
2018-01-07T17:53:39.921Z,95579
2018-01-07T17:56:08.061Z,95587
2018-01-07T17:58:36.275Z,95586
2018-01-07T18:01:05.322Z,95601
2018-01-07T18:03:34.275Z,95599
2018-01-07T18:06:02.504Z,95606
2018-01-07T18:08:35.233Z,95612
2018-01-07T18:11:03.423Z,95626
2018-01-07T18:13:31.646Z,95617
2018-01-07T18:15:59.861Z,95627
2018-01-07T18:18:28.058Z,95611
2018-01-07T18:20:56.312Z,95611
2018-01-07T18:23:24.513Z,95610
2018-01-07T18:25:52.748Z,95619
2018-01-07T18:28:20.981Z,95614
2018-01-07T18:30:50.111Z,95616
2018-01-07T18:33:18.324Z,95607
2018-01-07T18:35:46.670Z,95607
2018-01-07T18:38:14.864Z,95606
2018-01-07T18:40:43.050Z,95608
2018-01-07T18:43:11.305Z,95610
2018-01-07T18:45:40.688Z,95611
2018-01-07T18:48:08.957Z,95622
2018-01-07T18:50:37.124Z,95628
2018-01-07T18:53:05.359Z,95625
2018-01-07T18:55:34.380Z,95626
2018-01-07T18:58:02.599Z,95618
2018-01-07T19:00:30.839Z,95616
2018-01-07T19:02:59.151Z,95616
2018-01-07T19:05:27.373Z,95621
2018-01-07T19:07:56.465Z,95609
2018-01-07T19:10:24.698Z,95624
2018-01-07T19:12:52.936Z,95633
2018-01-07T19:15:21.926Z,95625
2018-01-07T19:17:50.457Z,95620
2018-01-07T19:20:18.780Z,95634
2018-01-07T19:22:46.976Z,95630
2018-01-07T19:25:15.242Z,95637
2018-01-07T19:27:43.514Z,95646
2018-01-07T19:30:12.719Z,95652
2018-01-07T19:32:41.774Z,95652
2018-01-07T19:35:11.019Z,95644
2018-01-07T19:37:40.328Z,95649
2018-01-07T19:40:08.735Z,95642
2018-01-07T19:42:38.446Z,95645
2018-01-07T19:45:06.792Z,95656
2018-01-07T19:47:36.029Z,95642
2018-01-07T19:50:04.904Z,95635
2018-01-07T19:52:33.216Z,95653
2018-01-07T19:55:01.500Z,95660
2018-01-07T19:57:29.784Z,95652
2018-01-07T19:59:58.964Z,95652
2018-01-07T20:02:28.081Z,95667
2018-01-07T20:04:56.356Z,95650
2018-01-07T20:07:26.149Z,95647
2018-01-07T20:09:54.453Z,95662
2018-01-07T20:12:22.802Z,95664
2018-01-07T20:14:54.626Z,95671
2018-01-07T20:17:24.154Z,95681
2018-01-07T20:19:57.013Z,95687
2018-01-07T20:22:26.469Z,95689
2018-01-07T20:24:54.792Z,95683
2018-01-07T20:27:23.198Z,95672
2018-01-07T20:29:52.341Z,95674
2018-01-07T20:32:20.674Z,95675
2018-01-07T20:34:50.714Z,95671
2018-01-07T20:37:19.044Z,95667
2018-01-07T20:39:51.271Z,95667
2018-01-07T20:42:20.950Z,95667
2018-01-07T20:44:49.984Z,95687
2018-01-07T20:47:18.268Z,95682
2018-01-07T20:49:47.418Z,95686
2018-01-07T20:52:16.444Z,95679
2018-01-07T21:07:41.464Z,95684
2018-01-07T21:10:09.804Z,95689
2018-01-07T21:12:38.190Z,95686
2018-01-07T21:15:06.451Z,95683
2018-01-07T21:17:34.778Z,95687
2018-01-07T21:20:02.988Z,95690
2018-01-07T21:22:31.349Z,95687
2018-01-07T21:24:59.760Z,95684
2018-01-07T21:27:28.977Z,95683
2018-01-07T21:29:57.194Z,95682
2018-01-07T21:32:25.459Z,95679
2018-01-07T21:34:53.714Z,95677
2018-01-07T21:37:21.982Z,95686
2018-01-07T21:39:50.208Z,95681
2018-01-07T21:42:18.570Z,95683
2018-01-07T21:44:46.849Z,95682
2018-01-07T21:47:15.094Z,95675
2018-01-07T21:49:43.321Z,95674
2018-01-07T21:52:12.303Z,95670
2018-01-07T21:54:41.383Z,95671
2018-01-07T21:57:09.739Z,95671
2018-01-07T22:02:45.539Z,95662
2018-01-07T22:05:15.696Z,95671
2018-01-07T22:07:43.976Z,95673
2018-01-07T22:10:12.566Z,95674
2018-01-07T22:12:40.742Z,95669
2018-01-07T22:15:08.928Z,95680
2018-01-07T22:17:37.125Z,95663
2018-01-07T22:20:06.147Z,95669
2018-01-07T22:22:34.308Z,95674
2018-01-07T22:25:03.208Z,95676
2018-01-07T22:27:31.350Z,95685
2018-01-07T22:29:59.565Z,95672
2018-01-07T22:32:27.798Z,95689
2018-01-07T22:34:56.102Z,95686
2018-01-07T22:37:24.977Z,95689
2018-01-07T22:39:53.885Z,95685
2018-01-07T22:42:22.837Z,95676
2018-01-07T22:44:51.015Z,95669
2018-01-07T22:47:24.894Z,95668
2018-01-07T22:49:53.141Z,95677
2018-01-07T22:52:21.327Z,95665
2018-01-07T22:54:49.530Z,95665
2018-01-07T22:57:17.734Z,95680
2018-01-07T22:59:45.871Z,95686
2018-01-07T23:02:14.015Z,95687
2018-01-07T23:04:42.145Z,95672
2018-01-07T23:07:10.395Z,95674
2018-01-07T23:09:38.535Z,95687
2018-01-07T23:12:06.723Z,95680
2018-01-07T23:14:34.928Z,95684
2018-01-07T23:17:03.274Z,95687
2018-01-07T23:19:31.410Z,95682
2018-01-07T23:21:59.614Z,95690
2018-01-07T23:24:27.843Z,95683
2018-01-07T23:26:56.029Z,95682
2018-01-07T23:29:24.276Z,95678
2018-01-07T23:31:52.541Z,95682
2018-01-07T23:34:20.850Z,95675
2018-01-07T23:36:49.133Z,95679
2018-01-07T23:39:17.264Z,95682
2018-01-07T23:41:45.408Z,95686
2018-01-07T23:44:14.314Z,95682
2018-01-07T23:46:42.444Z,95676
2018-01-07T23:49:10.555Z,95683
2018-01-07T23:51:39.542Z,95682
2018-01-07T23:54:07.779Z,95675
2018-01-07T23:56:35.975Z,95658
2018-01-07T23:59:04.209Z,95654
